createdAt,value
2019-01-14T00:00:30.309Z,2.27
2019-01-14T00:03:02.314Z,2.25
2019-01-14T00:05:34.062Z,2.20
2019-01-14T00:08:05.753Z,2.30
2019-01-14T00:13:08.718Z,2.10
2019-01-14T00:18:11.297Z,2.25
2019-01-14T00:20:42.801Z,1.98
2019-01-14T00:23:14.397Z,2.10
2019-01-14T00:25:46.285Z,1.90
2019-01-14T00:28:17.872Z,1.77
2019-01-14T00:30:49.678Z,1.80
2019-01-14T00:35:53.071Z,2.10
2019-01-14T00:38:25.266Z,2.02
2019-01-14T00:40:56.833Z,1.90
2019-01-14T00:43:28.594Z,1.92
2019-01-14T00:46:00.400Z,1.92
2019-01-14T00:48:32.067Z,2.20
2019-01-14T00:51:03.745Z,2.00
2019-01-14T00:56:06.318Z,1.90
2019-01-14T00:58:37.841Z,2.15
2019-01-14T01:01:09.629Z,2.17
2019-01-14T01:03:41.341Z,1.98
2019-01-14T01:06:12.906Z,1.70
2019-01-14T01:08:44.625Z,1.95
2019-01-14T01:11:16.352Z,1.75
2019-01-14T01:13:48.066Z,2.30
2019-01-14T01:16:19.812Z,1.92
2019-01-14T01:18:52.049Z,1.70
2019-01-14T01:21:23.783Z,2.02
2019-01-14T01:26:26.308Z,2.02
2019-01-14T01:28:58.323Z,2.02
2019-01-14T01:31:30.061Z,2.25
2019-01-14T01:34:02.363Z,2.00
2019-01-14T01:36:34.070Z,2.10
2019-01-14T01:39:08.721Z,1.92
2019-01-14T01:44:11.074Z,2.00
2019-01-14T01:46:42.974Z,2.20
2019-01-14T01:49:14.786Z,2.42
2019-01-14T01:56:48.055Z,2.00
2019-01-14T01:59:19.802Z,1.75
2019-01-14T02:01:51.335Z,2.33
2019-01-14T02:04:23.069Z,2.10
2019-01-14T02:06:54.750Z,2.25
2019-01-14T02:09:26.377Z,2.40
2019-01-14T02:11:58.362Z,2.25
2019-01-14T02:14:30.062Z,1.75
2019-01-14T02:17:01.849Z,2.40
2019-01-14T02:19:33.758Z,2.20
2019-01-14T02:24:36.310Z,2.00
2019-01-14T02:27:07.907Z,1.87
2019-01-14T02:29:39.770Z,2.30
2019-01-14T02:34:41.684Z,2.00
2019-01-14T02:39:44.614Z,2.42
2019-01-14T02:42:16.367Z,2.12
2019-01-14T02:44:48.314Z,2.55
2019-01-14T02:47:19.909Z,2.30
2019-01-14T02:49:51.384Z,2.40
2019-01-14T02:52:23.062Z,2.08
2019-01-14T02:54:54.745Z,2.33
2019-01-14T02:59:57.066Z,2.50
2019-01-14T03:02:28.780Z,2.60
2019-01-14T03:07:31.289Z,2.40
2019-01-14T03:10:02.831Z,2.40
2019-01-14T03:12:34.786Z,2.17
2019-01-14T03:17:37.753Z,2.25
2019-01-14T03:27:47.741Z,2.70
2019-01-14T03:32:52.768Z,2.40
2019-01-14T03:37:55.310Z,2.37
2019-01-14T03:40:26.825Z,2.33
2019-01-14T03:42:58.407Z,1.82
2019-01-14T03:45:30.078Z,2.62
2019-01-14T03:48:01.770Z,2.10
2019-01-14T03:53:04.305Z,2.33
2019-01-14T03:55:36.318Z,2.40
2019-01-14T03:58:07.856Z,2.40
2019-01-14T04:00:39.560Z,2.47
2019-01-14T04:03:11.771Z,2.90
2019-01-14T04:05:43.394Z,2.37
2019-01-14T04:08:15.279Z,2.40
2019-01-14T04:10:46.868Z,2.70
2019-01-14T04:13:18.594Z,2.60
2019-01-14T04:15:50.322Z,2.87
2019-01-14T04:18:21.925Z,2.50
2019-01-14T04:20:54.326Z,2.80
2019-01-14T04:23:25.806Z,2.22
2019-01-14T04:26:03.874Z,2.83
2019-01-14T04:28:35.727Z,2.58
2019-01-14T04:33:38.304Z,2.40
2019-01-14T04:36:09.844Z,2.62
2019-01-14T04:38:41.668Z,2.75
2019-01-14T04:41:13.362Z,2.62
2019-01-14T04:43:45.348Z,2.40
2019-01-14T04:46:17.109Z,2.87
2019-01-14T04:48:48.787Z,2.83
2019-01-14T04:53:51.381Z,2.80
2019-01-14T04:56:23.074Z,2.45
2019-01-14T04:58:54.782Z,2.90
2019-01-14T05:01:26.368Z,2.50
2019-01-14T05:03:58.763Z,2.70
2019-01-14T05:06:30.557Z,2.45
2019-01-14T05:09:02.411Z,3.10
2019-01-14T05:11:34.068Z,2.50
2019-01-14T05:14:05.787Z,2.98
2019-01-14T05:19:08.343Z,3.00
2019-01-14T05:21:39.898Z,2.33
2019-01-14T05:24:11.777Z,2.60
2019-01-14T05:29:14.621Z,2.45
2019-01-14T05:31:46.386Z,2.72
2019-01-14T05:34:18.071Z,2.70
2019-01-14T05:36:49.996Z,2.58
2019-01-14T05:39:21.795Z,2.62
2019-01-14T05:41:53.378Z,2.47
2019-01-14T05:44:25.077Z,2.72
2019-01-14T05:46:56.768Z,2.60
2019-01-14T05:51:59.313Z,2.22
2019-01-14T05:54:31.300Z,2.92
2019-01-14T05:57:03.314Z,2.67
2019-01-14T05:59:34.924Z,2.47
2019-01-14T06:02:06.799Z,2.25
2019-01-14T06:07:09.326Z,2.62
2019-01-14T06:09:41.000Z,2.17
2019-01-14T06:12:12.786Z,2.27
2019-01-14T06:17:15.434Z,2.85
2019-01-14T06:19:47.817Z,2.58
2019-01-14T06:22:19.736Z,2.17
2019-01-14T06:24:51.355Z,2.50
2019-01-14T06:27:23.312Z,2.08
2019-01-14T06:29:54.853Z,2.02
2019-01-14T06:32:26.634Z,2.50
2019-01-14T06:34:58.351Z,2.37
2019-01-14T06:37:30.078Z,2.80
2019-01-14T06:40:01.793Z,2.10
2019-01-14T06:42:34.342Z,2.60
2019-01-14T06:45:06.814Z,2.00
2019-01-14T06:47:38.620Z,2.40
2019-01-14T06:50:13.426Z,2.40
2019-01-14T06:52:45.073Z,2.10
2019-01-14T06:55:16.839Z,2.77
2019-01-14T06:57:48.591Z,2.30
2019-01-14T07:00:29.001Z,2.20
2019-01-14T07:03:00.802Z,2.22
2019-01-14T07:05:32.627Z,2.50
2019-01-14T07:08:03.686Z,2.87
2019-01-14T07:13:06.317Z,2.12
2019-01-14T07:15:37.826Z,2.50
2019-01-14T07:18:09.618Z,2.52
2019-01-14T07:20:41.348Z,2.22
2019-01-14T07:23:13.318Z,2.40
2019-01-14T07:25:44.997Z,1.70
2019-01-14T07:28:16.770Z,2.37
2019-01-14T07:33:19.599Z,2.60
2019-01-14T07:35:51.322Z,2.30
2019-01-14T07:38:23.316Z,2.17
2019-01-14T07:40:54.837Z,2.60
2019-01-14T07:43:26.610Z,1.65
2019-01-14T07:45:57.857Z,2.40
2019-01-14T07:48:29.461Z,2.35
2019-01-14T07:51:01.317Z,2.27
2019-01-14T07:53:32.864Z,2.50
2019-01-14T07:56:04.650Z,2.05
2019-01-14T08:01:07.374Z,2.72
2019-01-14T08:03:39.069Z,1.80
2019-01-14T08:06:10.749Z,2.12
2019-01-14T08:11:13.298Z,1.95
2019-01-14T08:13:45.002Z,2.10
2019-01-14T08:16:16.732Z,2.15
2019-01-14T08:21:19.277Z,1.98
2019-01-14T08:23:50.804Z,1.80
2019-01-14T08:26:22.992Z,2.08
2019-01-14T08:28:54.774Z,1.98
2019-01-14T08:33:57.296Z,1.98
2019-01-14T08:36:28.788Z,2.15
2019-01-14T08:39:00.590Z,2.00
2019-01-14T08:41:34.808Z,2.08
2019-01-14T08:44:09.356Z,2.10
2019-01-14T08:46:41.062Z,2.12
2019-01-14T08:49:12.782Z,1.80
2019-01-14T08:54:15.305Z,2.00
2019-01-14T08:56:47.365Z,1.92
2019-01-14T08:59:19.030Z,2.10
2019-01-14T09:01:50.742Z,1.90
2019-01-14T09:06:54.762Z,1.90
2019-01-14T09:11:57.469Z,1.70
2019-01-14T09:14:29.036Z,1.80
2019-01-14T09:17:00.749Z,1.65
2019-01-14T09:22:03.304Z,1.98
2019-01-14T09:24:34.824Z,2.00
2019-01-14T09:27:06.594Z,1.80
2019-01-14T09:29:38.465Z,1.98
2019-01-14T09:32:10.337Z,2.15
2019-01-14T09:34:42.310Z,1.80
2019-01-14T09:37:13.858Z,2.10
2019-01-14T09:39:45.622Z,2.00
2019-01-14T09:42:17.366Z,1.87
2019-01-14T09:44:49.300Z,2.00
2019-01-14T09:47:20.829Z,1.90
2019-01-14T09:49:52.456Z,2.20
2019-01-14T09:52:24.310Z,1.90
2019-01-14T09:54:55.848Z,1.95
2019-01-14T09:57:27.611Z,2.15
2019-01-14T09:59:59.372Z,2.30
2019-01-14T10:02:31.050Z,2.22
2019-01-14T10:05:02.797Z,1.95
2019-01-14T10:07:34.437Z,2.10
2019-01-14T10:10:07.818Z,1.67
2019-01-14T10:12:39.350Z,1.77
2019-01-14T10:15:16.389Z,2.17
2019-01-14T10:17:51.997Z,1.87
2019-01-14T10:20:23.748Z,1.87
2019-01-14T10:25:27.317Z,1.82
2019-01-14T10:27:59.048Z,1.80
2019-01-14T10:30:31.306Z,1.80
2019-01-14T10:33:02.981Z,2.10
2019-01-14T10:35:34.756Z,1.80
2019-01-14T10:40:37.297Z,2.08
2019-01-14T10:43:08.856Z,2.15
2019-01-14T10:45:40.647Z,4.53
2019-01-14T10:48:12.368Z,7.20
2019-01-14T10:50:44.070Z,2.80
2019-01-14T10:53:15.734Z,2.27
2019-01-14T10:58:18.301Z,1.90
2019-01-14T11:00:49.882Z,2.00
2019-01-14T11:03:21.720Z,2.37
2019-01-14T11:08:24.377Z,2.00
2019-01-14T11:10:56.561Z,1.75
2019-01-14T11:13:28.297Z,1.82
2019-01-14T11:15:59.817Z,1.90
2019-01-14T11:18:31.404Z,1.90
2019-01-14T11:21:03.059Z,1.92
2019-01-14T11:23:34.748Z,1.90
2019-01-14T11:28:37.298Z,1.90
2019-01-14T11:31:10.737Z,2.00
2019-01-14T11:36:14.387Z,2.05
2019-01-14T11:38:55.733Z,1.90
2019-01-14T11:43:59.417Z,2.02
2019-01-14T11:46:30.999Z,2.10
2019-01-14T11:49:02.696Z,1.85
2019-01-14T11:54:05.293Z,1.77
2019-01-14T11:56:37.313Z,1.98
2019-01-14T11:59:09.033Z,2.27
2019-01-14T12:01:40.765Z,2.10
2019-01-14T12:06:43.062Z,2.02
2019-01-14T12:09:14.774Z,1.87
2019-01-14T12:14:17.724Z,1.87
2019-01-14T12:19:20.293Z,2.10
2019-01-14T12:21:51.984Z,1.85
2019-01-14T12:24:23.738Z,2.08
2019-01-14T12:29:26.305Z,1.70
2019-01-14T12:31:57.842Z,1.82
2019-01-14T12:34:29.578Z,1.90
2019-01-14T12:37:01.311Z,2.00
2019-01-14T12:39:32.829Z,1.70
2019-01-14T12:42:04.624Z,1.70
2019-01-14T12:47:26.393Z,1.52
2019-01-14T12:49:58.057Z,1.60
2019-01-14T12:52:30.362Z,1.77
2019-01-14T12:55:02.279Z,1.70
2019-01-14T12:57:33.858Z,1.70
2019-01-14T13:00:07.757Z,1.57
2019-01-14T13:05:10.381Z,1.92
2019-01-14T13:07:42.048Z,1.90
2019-01-14T13:10:14.304Z,1.60
2019-01-14T13:12:45.849Z,1.50
2019-01-14T13:15:24.263Z,1.75
2019-01-14T13:17:56.065Z,2.33
2019-01-14T13:20:27.769Z,2.42
2019-01-14T13:22:59.737Z,2.30
2019-01-14T13:25:31.344Z,2.10
2019-01-14T13:28:02.872Z,2.45
2019-01-14T13:30:34.376Z,2.10
2019-01-14T13:33:06.094Z,2.10
2019-01-14T13:35:38.301Z,1.90
2019-01-14T13:38:09.876Z,1.52
2019-01-14T13:40:41.744Z,1.60
2019-01-14T13:45:44.310Z,1.57
2019-01-14T13:48:15.878Z,1.45
2019-01-14T13:50:47.754Z,1.57
2019-01-14T13:53:19.385Z,1.90
2019-01-14T13:55:51.336Z,1.90
2019-01-14T13:58:22.856Z,2.33
2019-01-14T14:00:54.626Z,2.60
2019-01-14T14:03:26.315Z,2.30
2019-01-14T14:05:58.017Z,3.50
2019-01-14T14:08:29.728Z,2.60
2019-01-14T14:13:32.301Z,2.40
2019-01-14T14:16:03.871Z,2.05
2019-01-14T14:18:35.611Z,2.05
2019-01-14T14:21:07.702Z,1.77
2019-01-14T14:26:10.341Z,1.80
2019-01-14T14:28:42.057Z,1.67
2019-01-14T14:31:13.744Z,2.00
2019-01-14T14:36:16.754Z,1.90
2019-01-14T14:43:50.316Z,1.60
2019-01-14T14:46:22.298Z,2.30
2019-01-14T14:49:01.761Z,2.42
2019-01-14T14:51:33.755Z,2.30
2019-01-14T14:54:11.629Z,1.70
2019-01-14T14:56:48.883Z,1.75
2019-01-14T14:59:20.807Z,1.50
2019-01-14T15:01:53.820Z,1.57
2019-01-14T15:04:25.604Z,1.60
2019-01-14T15:06:57.788Z,1.70
2019-01-14T15:09:31.697Z,1.70
2019-01-14T15:12:04.066Z,2.47
2019-01-14T15:14:37.331Z,1.90
2019-01-14T15:17:09.404Z,2.00
2019-01-14T15:19:42.028Z,1.95
2019-01-14T15:22:14.312Z,1.72
2019-01-14T15:24:45.913Z,1.80
2019-01-14T15:27:17.741Z,1.90
2019-01-14T15:32:20.395Z,1.72
2019-01-14T15:34:52.304Z,1.92
2019-01-14T15:37:25.760Z,2.70
2019-01-14T15:42:30.342Z,1.90
2019-01-14T15:45:02.057Z,1.60
2019-01-14T15:47:33.782Z,1.65
2019-01-14T15:50:06.270Z,1.70
2019-01-14T15:52:38.301Z,1.80
2019-01-14T15:55:29.789Z,1.80
2019-01-14T16:00:32.370Z,1.95
2019-01-14T16:03:04.062Z,1.75
2019-01-14T16:05:35.829Z,1.47
2019-01-14T16:08:07.601Z,1.90
2019-01-14T16:10:39.802Z,1.70
2019-01-14T16:13:11.759Z,1.72
2019-01-14T16:18:15.435Z,1.70
2019-01-14T16:20:47.653Z,1.80
2019-01-14T16:23:19.818Z,2.05
2019-01-14T16:25:51.870Z,1.82
2019-01-14T16:28:24.142Z,2.00
2019-01-14T16:30:55.801Z,1.72
2019-01-14T16:33:27.765Z,1.53
2019-01-14T16:38:30.486Z,1.70
2019-01-14T16:41:02.620Z,1.67
2019-01-14T16:43:34.370Z,1.60
2019-01-14T16:46:06.874Z,1.50
2019-01-14T16:48:38.818Z,1.67
2019-01-14T16:51:10.883Z,1.62
2019-01-14T16:53:42.806Z,1.60
2019-01-14T16:56:15.267Z,1.70
2019-01-14T16:58:47.482Z,1.70
2019-01-14T17:04:01.318Z,1.47
2019-01-14T17:06:33.057Z,1.55
2019-01-14T17:09:08.446Z,1.80
2019-01-14T17:11:40.301Z,1.70
2019-01-14T17:14:12.336Z,1.62
2019-01-14T17:16:44.474Z,1.90
2019-01-14T17:19:16.301Z,1.80
2019-01-14T17:21:48.017Z,1.57
2019-01-14T17:24:20.353Z,1.98
2019-01-14T17:26:52.302Z,1.77
2019-01-14T17:29:23.836Z,1.95
2019-01-14T17:31:55.613Z,1.60
2019-01-14T17:34:28.309Z,2.10
2019-01-14T17:37:00.028Z,1.92
2019-01-14T17:39:31.752Z,2.02
2019-01-14T17:42:03.598Z,2.00
2019-01-14T17:44:35.608Z,2.10
2019-01-14T17:47:07.309Z,1.87
2019-01-14T17:49:39.458Z,2.05
2019-01-14T17:52:11.067Z,1.60
2019-01-14T17:54:42.762Z,1.90
2019-01-14T17:59:45.403Z,1.80
2019-01-14T18:02:17.067Z,1.75
2019-01-14T18:04:48.745Z,1.67
2019-01-14T18:09:52.905Z,1.87
2019-01-14T18:12:24.780Z,1.70
2019-01-14T18:17:27.257Z,1.50
2019-01-14T18:19:58.825Z,1.70
2019-01-14T18:22:30.750Z,1.90
2019-01-14T18:27:33.438Z,1.37
2019-01-14T18:30:07.309Z,1.45
2019-01-14T18:32:39.754Z,1.60
2019-01-14T18:37:42.313Z,1.52
2019-01-14T18:40:15.762Z,1.67
2019-01-14T18:42:48.055Z,1.65
2019-01-14T18:45:21.753Z,1.67
2019-01-14T18:50:25.414Z,1.80
2019-01-14T18:52:57.421Z,1.45
2019-01-14T18:55:29.886Z,1.70
2019-01-14T18:58:03.759Z,1.57
2019-01-14T19:03:06.757Z,1.70
2019-01-14T19:08:10.312Z,1.85
2019-01-14T19:10:42.064Z,1.60
2019-01-14T19:13:13.751Z,1.70
2019-01-14T19:15:45.776Z,1.50
2019-01-14T19:18:17.614Z,1.70
2019-01-14T19:20:49.597Z,1.80
2019-01-14T19:23:20.931Z,2.00
2019-01-14T19:25:52.750Z,1.47
2019-01-14T19:30:57.839Z,1.70
2019-01-14T19:36:01.378Z,1.77
2019-01-14T19:38:33.759Z,1.62
2019-01-14T19:43:37.303Z,1.72
2019-01-14T19:46:09.293Z,1.80
2019-01-14T19:48:41.298Z,1.92
2019-01-14T19:51:13.361Z,1.87
2019-01-14T19:53:45.306Z,1.82
2019-01-14T19:56:18.103Z,1.65
2019-01-14T19:58:49.788Z,1.92
2019-01-14T20:01:21.390Z,1.62
2019-01-14T20:03:53.328Z,1.82
2019-01-14T20:06:25.300Z,1.52
2019-01-14T20:09:04.390Z,1.82
2019-01-14T20:11:36.269Z,1.57
2019-01-14T20:14:15.930Z,1.55
2019-01-14T20:16:47.860Z,1.47
2019-01-14T20:19:20.805Z,1.55
2019-01-14T20:22:04.812Z,1.50
2019-01-14T20:24:38.356Z,1.60
2019-01-14T20:29:44.746Z,1.50
2019-01-14T20:32:17.792Z,1.60
2019-01-14T20:34:49.736Z,1.40
2019-01-14T20:39:55.780Z,1.80
2019-01-14T20:45:00.341Z,1.67
2019-01-14T20:47:32.011Z,1.57
2019-01-14T20:50:03.754Z,1.70
2019-01-14T20:55:06.364Z,1.60
2019-01-14T20:57:38.011Z,1.52
2019-01-14T21:00:19.709Z,1.80
2019-01-14T21:05:22.836Z,1.50
2019-01-14T21:07:54.362Z,1.80
2019-01-14T21:10:26.056Z,2.00
2019-01-14T21:12:57.796Z,1.32
2019-01-14T21:15:29.745Z,1.63
2019-01-14T21:20:32.410Z,1.55
2019-01-14T21:23:04.054Z,1.77
2019-01-14T21:25:35.743Z,1.90
2019-01-14T21:30:38.778Z,1.50
2019-01-14T21:35:41.292Z,1.98
2019-01-14T21:38:14.322Z,2.00
2019-01-14T21:40:46.123Z,1.80
2019-01-14T21:43:17.773Z,1.55
2019-01-14T21:45:49.572Z,1.40
2019-01-14T21:48:21.597Z,1.67
2019-01-14T21:50:53.329Z,1.40
2019-01-14T21:53:25.053Z,1.52
2019-01-14T21:55:57.311Z,1.65
2019-01-14T21:58:28.970Z,1.32
2019-01-14T22:01:00.770Z,1.52
2019-01-14T22:03:32.600Z,1.62
2019-01-14T22:06:04.329Z,1.50
2019-01-14T22:08:35.997Z,1.60
2019-01-14T22:11:07.891Z,1.42
2019-01-14T22:13:39.801Z,2.08
2019-01-14T22:16:18.319Z,1.72
2019-01-14T22:18:50.065Z,1.80
2019-01-14T22:21:21.779Z,1.80
2019-01-14T22:28:57.698Z,1.60
2019-01-14T22:33:59.836Z,2.22
2019-01-14T22:36:39.303Z,2.05
2019-01-14T22:39:11.072Z,2.08
2019-01-14T22:41:46.107Z,1.70
2019-01-14T22:44:17.793Z,1.67
2019-01-14T22:46:49.766Z,1.50
2019-01-14T22:51:52.298Z,2.12
2019-01-14T22:54:24.332Z,1.90
2019-01-14T22:56:55.857Z,1.72
2019-01-14T22:59:27.370Z,1.60
2019-01-14T23:01:59.294Z,1.75
2019-01-14T23:04:30.808Z,1.90
2019-01-14T23:07:02.587Z,1.67
2019-01-14T23:09:34.308Z,1.70
2019-01-14T23:12:06.058Z,1.70
2019-01-14T23:14:37.744Z,1.80
2019-01-14T23:19:40.307Z,1.70
2019-01-14T23:22:11.867Z,1.50
2019-01-14T23:24:44.261Z,1.60
2019-01-14T23:27:16.302Z,1.60
2019-01-14T23:29:48.801Z,1.70
2019-01-14T23:32:20.569Z,1.70
2019-01-14T23:34:52.306Z,1.62
2019-01-14T23:37:24.339Z,1.50
2019-01-14T23:39:56.384Z,1.50
2019-01-14T23:42:28.302Z,1.77
2019-01-14T23:45:00.311Z,1.87
2019-01-14T23:47:31.870Z,1.80
2019-01-14T23:50:03.989Z,1.85
2019-01-14T23:52:35.726Z,1.82
2019-01-14T23:57:38.373Z,1.60
